Time;durP1;ratioP1;P1;durP2;ratioP2;P2;SDS_P1;SDS_P2;PMS_P1;PMS_P2;Temp;Humidity;BMP_temperature;BMP_pressure;BME280_temperature;BME280_humidity;BME280_pressure;Samples;Min_cycle;Max_cycle;Signal;HPM_P1;HPM_P2
2024/02/14 00:01:20;;;;;;;27.30;13.60;;;;;;;3.09;72.09;97625.89;104643;1260;103632;-76
2024/02/14 00:03:49;;;;;;;22.70;12.80;;;;;;;3.08;72.29;97629.35;104611;1270;100346;-76
2024/02/14 00:06:23;;;;;;;19.50;12.10;;;;;;;3.07;72.28;97628.64;104692;1256;99124;-75
2024/02/14 00:08:53;;;;;;;19.90;11.60;;;;;;;3.06;72.54;97633.86;104624;1262;97941;-76
2024/02/14 00:11:35;;;;;;;19.50;11.10;;;;;;;3.05;72.54;97632.21;104634;1262;99012;-75
2024/02/14 00:14:01;;;;;;;18.60;10.40;;;;;;;3.05;72.61;97634.33;104614;1263;103613;-77
2024/02/14 00:16:38;;;;;;;18.20;9.80;;;;;;;3.06;72.68;97631.00;104678;1262;97938;-76
2024/02/14 00:19:05;;;;;;;16.80;9.90;;;;;;;3.05;72.66;97633.79;104476;1264;99088;-75
2024/02/14 00:21:42;;;;;;;15.20;9.30;;;;;;;3.04;72.86;97635.68;104663;1261;97929;-75
2024/02/14 00:24:18;;;;;;;20.90;10.60;;;;;;;3.01;72.95;97638.11;104725;1262;98357;-75
2024/02/14 00:26:51;;;;;;;16.10;10.10;;;;;;;3.00;73.12;97639.88;104663;1262;102051;-76
2024/02/14 00:29:17;;;;;;;;;;;;;;;2.99;73.22;97642.05;104709;1261;100134;-75
2024/02/14 00:31:44;;;;;;;19.30;11.20;;;;;;;2.98;73.23;97646.83;104609;1275;108522;-76
2024/02/14 00:34:33;;;;;;;17.70;10.10;;;;;;;2.96;73.00;97649.12;104627;1256;98038;-77
2024/02/14 00:37:00;;;;;;;20.20;10.80;;;;;;;2.93;73.33;97653.58;104790;1262;99829;-76
2024/02/14 00:39:51;;;;;;;21.30;11.00;;;;;;;2.93;73.59;97654.06;104637;1271;99093;-76
2024/02/14 00:42:23;;;;;;;18.70;10.80;;;;;;;2.93;73.64;97660.48;104689;1261;101334;-75
2024/02/14 00:45:10;;;;;;;18.60;10.60;;;;;;;2.88;73.50;97657.77;104633;1265;99038;-75
2024/02/14 00:47:59;;;;;;;17.00;10.70;;;;;;;2.84;73.54;97655.15;104589;1273;98859;-77
2024/02/14 00:50:39;;;;;;;21.40;11.90;;;;;;;2.82;73.44;97657.89;104662;1256;98438;-77
2024/02/14 00:53:16;;;;;;;19.30;12.20;;;;;;;2.81;73.52;97662.27;104574;1261;102631;-78
2024/02/14 00:56:23;;;;;;;22.00;12.70;;;;;;;2.80;73.70;97661.41;104620;1264;101093;-85
2024/02/14 00:59:00;;;;;;;22.90;12.10;;;;;;;2.80;73.94;97661.61;104636;1268;99854;-77
2024/02/14 01:02:07;;;;;;;23.60;12.60;;;;;;;2.80;74.14;97660.77;104534;1262;97900;-78
2024/02/14 01:04:37;;;;;;;26.00;13.80;;;;;;;2.79;74.35;97662.23;104646;1262;98463;-78
2024/02/14 01:07:06;;;;;;;28.10;14.30;;;;;;;2.77;74.32;97661.58;104692;1262;103697;-78
2024/02/14 01:09:52;;;;;;;28.80;14.80;;;;;;;2.74;74.27;97659.27;104651;1264;100402;-80
2024/02/14 01:12:29;;;;;;;26.20;14.20;;;;;;;2.73;74.34;97663.10;104580;1276;99015;-77
2024/02/14 01:15:35;;;;;;;27.30;14.10;;;;;;;2.71;74.44;97664.88;104706;1261;97944;-78
2024/02/14 01:18:07;;;;;;;24.10;13.90;;;;;;;2.65;74.52;97667.41;104644;1269;98364;-76
2024/02/14 01:20:33;;;;;;;26.00;14.10;;;;;;;2.64;74.60;97670.43;104646;1262;103541;-76
2024/02/14 01:23:00;;;;;;;28.80;15.00;;;;;;;2.61;74.47;97671.77;104653;1262;97999;-75
2024/02/14 01:25:34;;;;;;;31.10;16.20;;;;;;;2.60;74.52;97667.32;104616;1261;98213;-76
2024/02/14 01:28:05;;;;;;;30.30;15.00;;;;;;;2.58;74.65;97661.27;104667;1262;98031;-76
2024/02/14 01:30:51;;;;;;;29.90;14.50;;;;;;;2.56;74.88;97662.10;104699;1255;98434;-84
2024/02/14 01:33:30;;;;;;;26.50;14.40;;;;;;;2.54;74.99;97659.79;104679;1261;104839;-84
2024/02/14 01:35:57;;;;;;;25.90;13.80;;;;;;;2.53;75.11;97662.79;104689;1262;100420;-75
2024/02/14 01:38:45;;;;;;;31.00;14.40;;;;;;;2.53;75.21;97660.29;104692;1260;99341;-76
2024/02/14 01:41:14;;;;;;;27.70;13.70;;;;;;;2.52;75.30;97660.52;104685;1262;97944;-76
2024/02/14 01:44:01;;;;;;;26.60;14.00;;;;;;;2.53;75.40;97662.02;104700;1270;98380;-75
2024/02/14 01:46:28;;;;;;;30.80;14.60;;;;;;;2.52;75.31;97663.04;104730;1256;103607;-84
2024/02/14 01:48:59;;;;;;;26.90;14.20;;;;;;;2.49;75.35;97662.65;104722;1262;98028;-81
2024/02/14 01:52:06;;;;;;;23.00;14.20;;;;;;;2.49;75.44;97661.20;104667;1259;100037;-85
2024/02/14 01:54:38;;;;;;;20.70;12.70;;;;;;;2.48;75.66;97660.05;104602;1263;99378;-76
2024/02/14 01:57:11;;;;;;;24.10;13.90;;;;;;;2.49;75.75;97659.63;104689;1262;97934;-77
2024/02/14 01:59:48;;;;;;;27.30;14.70;;;;;;;2.49;75.81;97658.20;104685;1260;103481;-77
2024/02/14 02:02:16;;;;;;;23.90;13.30;;;;;;;2.49;75.87;97658.73;104709;1260;100172;-78
2024/02/14 02:04:42;;;;;;;29.30;16.20;;;;;;;2.49;75.85;97660.52;104715;1260;100194;-78
2024/02/14 02:07:09;;;;;;;30.60;16.20;;;;;;;2.50;76.03;97661.67;104703;1269;98835;-77
2024/02/14 02:09:36;;;;;;;27.50;14.10;;;;;;;2.51;76.12;97659.61;104636;1257;99236;-78
2024/02/14 02:12:06;;;;;;;25.60;13.50;;;;;;;2.50;76.17;97660.02;104730;1262;99297;-88
2024/02/14 02:14:33;;;;;;;23.30;12.00;;;;;;;2.49;76.06;97656.60;104666;1257;99907;-78
2024/02/14 02:17:00;;;;;;;24.50;13.80;;;;;;;2.47;76.11;97659.28;104649;1270;97923;-83
2024/02/14 02:19:27;;;;;;;29.70;14.00;;;;;;;2.47;76.18;97658.60;104706;1262;97877;-84
2024/02/14 02:21:53;;;;;;;21.80;12.40;;;;;;;2.46;76.22;97656.42;104620;1257;98352;-85
2024/02/14 02:24:20;;;;;;;21.20;12.40;;;;;;;2.43;76.17;97657.54;104716;1262;97947;-84
2024/02/14 02:26:46;;;;;;;22.50;12.80;;;;;;;2.43;76.08;97660.42;104652;1262;98003;-83
2024/02/14 02:29:19;;;;;;;21.40;12.30;;;;;;;2.43;76.09;97661.86;104716;1262;97912;-82
2024/02/14 02:31:47;;;;;;;22.20;11.90;;;;;;;2.43;76.20;97659.55;104690;1260;103664;-78
2024/02/14 02:34:14;;;;;;;20.80;12.10;;;;;;;2.43;76.24;97657.77;104732;1262;101329;-84
2024/02/14 02:36:43;;;;;;;17.30;11.00;;;;;;;2.44;76.22;97661.21;104712;1270;98109;-85
2024/02/14 02:39:09;;;;;;;21.80;12.00;;;;;;;2.45;76.33;97662.88;104705;1262;97995;-83
2024/02/14 02:41:39;;;;;;;24.00;12.60;;;;;;;2.45;76.43;97665.20;104708;1256;97993;-84
2024/02/14 02:44:06;;;;;;;19.80;12.20;;;;;;;2.46;76.43;97663.52;104677;1262;103433;-84
2024/02/14 02:46:33;;;;;;;21.50;13.40;;;;;;;2.44;76.42;97662.64;104657;1263;97899;-77
2024/02/14 02:49:05;;;;;;;24.80;13.20;;;;;;;2.42;76.54;97662.48;104680;1262;99457;-77
2024/02/14 02:51:34;;;;;;;22.80;13.20;;;;;;;2.43;76.57;97661.86;104645;1270;99278;-80
2024/02/14 02:54:01;;;;;;;25.00;12.80;;;;;;;2.45;76.39;97663.05;104608;1261;97858;-75
2024/02/14 02:56:28;;;;;;;24.30;13.60;;;;;;;2.47;76.39;97664.04;104633;1262;98937;-76
2024/02/14 02:58:56;;;;;;;21.40;12.10;;;;;;;2.47;76.51;97666.27;104655;1262;99235;-76
2024/02/14 03:01:24;;;;;;;23.70;14.10;;;;;;;2.43;76.36;97665.17;104665;1270;99326;-75
2024/02/14 03:03:53;;;;;;;26.80;14.00;;;;;;;2.41;76.39;97667.68;104734;1262;97995;-75
2024/02/14 03:06:20;;;;;;;24.00;13.80;;;;;;;2.42;76.36;97673.09;104638;1270;98727;-75
2024/02/14 03:08:48;;;;;;;23.00;12.00;;;;;;;2.43;76.43;97673.55;104677;1260;97916;-84
2024/02/14 03:11:28;;;;;;;23.50;12.80;;;;;;;2.41;76.43;97674.27;104757;1262;97912;-76
2024/02/14 03:13:57;;;;;;;23.20;13.20;;;;;;;2.37;76.53;97671.35;104641;1262;100144;-75
2024/02/14 03:17:04;;;;;;;27.30;13.50;;;;;;;2.35;76.31;97676.89;104728;1262;97912;-76
2024/02/14 03:19:38;;;;;;;29.00;14.50;;;;;;;2.37;76.27;97676.01;104644;1257;99352;-75
2024/02/14 03:22:16;;;;;;;25.00;14.10;;;;;;;2.39;76.46;97677.93;104627;1274;103294;-76
2024/02/14 03:24:46;;;;;;;25.40;14.00;;;;;;;2.39;76.56;97678.23;104500;1273;100633;-75
2024/02/14 03:27:13;;;;;;;29.50;14.50;;;;;;;2.39;76.74;97679.63;104631;1268;100034;-79
2024/02/14 03:29:39;;;;;;;28.50;16.00;;;;;;;2.39;76.71;97681.96;104688;1273;97991;-75
2024/02/14 03:32:15;;;;;;;27.00;13.30;;;;;;;2.39;76.74;97683.06;104657;1270;98011;-77
2024/02/14 03:35:02;;;;;;;23.30;13.00;;;;;;;2.38;76.83;97686.32;104705;1262;103687;-78
2024/02/14 03:37:58;;;;;;;28.20;14.20;;;;;;;2.38;76.81;97690.10;104775;1262;101336;-79
2024/02/14 03:40:48;;;;;;;27.00;15.40;;;;;;;2.37;76.86;97688.80;104653;1270;99964;-77
2024/02/14 03:43:14;;;;;;;29.40;15.20;;;;;;;2.36;76.88;97691.35;104574;1262;98025;-79
2024/02/14 03:45:41;;;;;;;26.80;14.60;;;;;;;2.36;76.80;97690.06;104626;1264;97919;-78
2024/02/14 03:48:20;;;;;;;23.10;13.20;;;;;;;2.37;76.87;97690.47;104679;1260;98054;-77
2024/02/14 03:50:49;;;;;;;28.40;14.50;;;;;;;2.36;76.90;97690.23;104711;1278;101088;-85
2024/02/14 03:53:18;;;;;;;27.80;15.00;;;;;;;2.35;76.80;97688.11;104656;1272;99964;-84
2024/02/14 03:55:45;;;;;;;25.40;14.20;;;;;;;2.36;76.85;97692.22;104671;1262;97911;-85
2024/02/14 03:58:37;;;;;;;21.50;12.90;;;;;;;2.41;76.86;97695.63;104695;1270;98488;-85
2024/02/14 04:01:07;;;;;;;25.40;14.40;;;;;;;2.44;76.89;97693.40;104684;1257;102325;-76
2024/02/14 04:03:37;;;;;;;25.50;15.50;;;;;;;2.40;76.87;97695.19;104650;1269;101240;-79
2024/02/14 04:06:06;;;;;;;27.30;15.70;;;;;;;2.37;76.83;97696.05;104626;1269;100047;-75
2024/02/14 04:08:33;;;;;;;21.60;12.80;;;;;;;2.33;77.04;97699.11;104707;1270;97934;-75
2024/02/14 04:11:02;;;;;;;22.90;13.20;;;;;;;2.29;77.04;97696.52;104639;1269;98869;-76
2024/02/14 04:13:29;;;;;;;26.90;13.80;;;;;;;2.25;77.11;97702.38;104643;1271;103704;-76
2024/02/14 04:15:55;;;;;;;25.90;14.10;;;;;;;2.28;77.26;97704.27;104669;1270;97923;-76
2024/02/14 04:18:25;;;;;;;22.80;13.80;;;;;;;2.30;77.30;97707.87;104623;1263;97996;-76
2024/02/14 04:20:51;;;;;;;31.10;17.30;;;;;;;2.28;77.34;97704.63;104707;1262;98007;-75
2024/02/14 04:23:18;;;;;;;32.30;18.00;;;;;;;2.25;77.43;97708.41;104625;1261;98000;-75
2024/02/14 04:25:48;;;;;;;35.60;19.10;;;;;;;2.26;77.54;97706.24;104711;1270;98020;-85
2024/02/14 04:28:14;;;;;;;38.70;21.70;;;;;;;2.24;77.60;97709.23;104661;1260;101499;-79
2024/02/14 04:30:48;;;;;;;43.80;23.50;;;;;;;2.23;77.55;97708.11;104711;1270;97923;-78
2024/02/14 04:33:14;;;;;;;39.70;21.90;;;;;;;2.24;77.80;97709.28;104638;1256;99149;-75
2024/02/14 04:36:01;;;;;;;39.30;21.20;;;;;;;2.23;77.71;97705.98;104680;1266;97983;-75
2024/02/14 04:38:31;;;;;;;35.70;19.30;;;;;;;2.22;77.74;97708.20;104607;1263;103582;-75
2024/02/14 04:41:03;;;;;;;36.60;19.80;;;;;;;2.19;77.83;97712.20;104644;1263;101402;-75
2024/02/14 04:43:50;;;;;;;35.00;19.50;;;;;;;2.19;77.86;97714.88;104706;1270;99945;-75
2024/02/14 04:46:22;;;;;;;33.20;17.90;;;;;;;2.19;77.93;97715.92;104595;1263;97928;-77
2024/02/14 04:48:51;;;;;;;31.30;19.50;;;;;;;2.20;78.02;97715.52;104702;1270;98845;-75
2024/02/14 04:51:20;;;;;;;35.40;19.10;;;;;;;2.21;77.99;97722.00;104660;1260;103107;-75
2024/02/14 04:53:47;;;;;;;28.70;17.70;;;;;;;2.22;78.06;97723.66;104717;1260;101316;-76
2024/02/14 04:56:16;;;;;;;35.50;19.00;;;;;;;2.23;78.18;97726.05;104644;1262;97984;-76
2024/02/14 04:58:58;;;;;;;34.30;18.10;;;;;;;2.25;78.08;97727.25;104621;1261;97916;-76
2024/02/14 05:01:56;;;;;;;30.10;17.20;;;;;;;2.24;78.06;97720.27;104674;1271;97925;-78
2024/02/14 05:04:44;;;;;;;33.40;17.90;;;;;;;2.20;77.97;97716.95;104653;1263;103811;-78
2024/02/14 05:07:21;;;;;;;46.20;21.80;;;;;;;2.19;78.13;97717.35;104753;1257;101427;-82
2024/02/14 05:09:52;;;;;;;99.10;35.10;;;;;;;2.20;78.01;97718.39;104704;1270;99933;-85
2024/02/14 05:12:21;;;;;;;118.10;39.90;;;;;;;2.20;77.97;97719.80;104673;1269;99252;-83
2024/02/14 05:14:50;;;;;;;110.80;37.40;;;;;;;2.17;77.98;97718.27;104615;1262;98351;-80
2024/02/14 05:17:17;;;;;;;84.80;29.00;;;;;;;2.12;77.76;97721.55;104615;1271;110966;-77
2024/02/14 05:19:43;;;;;;;73.30;26.40;;;;;;;2.12;77.87;97720.36;100754;1268;5382833;-77
2024/02/14 05:22:23;;;;;;;62.90;23.10;;;;;;;2.16;77.89;97721.40;104646;1267;97986;-78
2024/02/14 05:24:52;;;;;;;61.30;23.60;;;;;;;2.18;77.95;97721.16;104732;1269;98354;-77
2024/02/14 05:27:23;;;;;;;49.50;22.00;;;;;;;2.18;77.99;97726.00;104599;1269;103661;-76
2024/02/14 05:29:50;;;;;;;46.20;20.10;;;;;;;2.17;77.91;97724.84;104580;1266;101399;-75
2024/02/14 05:32:18;;;;;;;49.10;19.80;;;;;;;2.18;77.96;97724.17;104637;1263;98068;-75
2024/02/14 05:35:09;;;;;;;54.00;20.70;;;;;;;2.21;78.00;97722.20;104641;1256;97970;-75
2024/02/14 05:37:36;;;;;;;47.10;19.10;;;;;;;2.19;78.01;97725.52;104617;1280;98338;-75
2024/02/14 05:40:06;;;;;;;44.60;19.60;;;;;;;2.18;78.01;97730.99;104695;1261;97914;-75
2024/02/14 05:42:34;;;;;;;54.80;20.70;;;;;;;2.18;78.18;97742.52;104775;1259;102034;-82
2024/02/14 05:45:09;;;;;;;46.80;19.50;;;;;;;2.16;78.16;97747.34;104639;1275;99971;-77
2024/02/14 05:47:46;;;;;;;47.90;20.10;;;;;;;2.10;78.05;97747.39;104536;1272;97963;-77
2024/02/14 05:50:13;;;;;;;38.70;19.40;;;;;;;2.05;78.14;97748.60;104572;1262;98371;-77
2024/02/14 05:52:43;;;;;;;48.00;20.40;;;;;;;2.04;78.22;97751.20;104686;1269;97912;-77
2024/02/14 05:55:12;;;;;;;49.40;20.00;;;;;;;2.04;78.38;97747.78;104673;1264;101401;-77
2024/02/14 05:57:39;;;;;;;55.50;22.30;;;;;;;2.04;78.36;97746.41;104680;1257;99162;-79
2024/02/14 06:00:27;;;;;;;64.60;22.80;;;;;;;2.04;78.38;97747.10;104711;1260;99221;-77
2024/02/14 06:02:56;;;;;;;69.60;25.60;;;;;;;2.02;78.37;97748.58;104694;1260;99669;-78
2024/02/14 06:05:53;;;;;;;62.00;23.60;;;;;;;1.97;78.35;97753.87;104688;1262;103584;-85
2024/02/14 06:08:26;;;;;;;56.00;23.50;;;;;;;1.93;78.45;97756.36;104684;1260;101310;-83
2024/02/14 06:10:56;;;;;;;64.90;24.70;;;;;;;1.92;78.49;97758.20;104751;1257;100131;-84
2024/02/14 06:13:22;;;;;;;59.50;24.90;;;;;;;1.94;78.60;97764.04;104665;1270;97941;-84
2024/02/14 06:15:57;;;;;;;57.70;23.30;;;;;;;1.92;78.59;97762.43;104669;1270;98321;-77
2024/02/14 06:18:44;;;;;;;53.00;22.90;;;;;;;1.87;78.66;97765.08;104665;1270;103399;-78
2024/02/14 06:21:39;;;;;;;56.20;23.20;;;;;;;1.83;78.73;97769.94;104656;1268;101435;-76
2024/02/14 06:24:06;;;;;;;55.30;24.00;;;;;;;1.83;78.79;97771.64;104630;1260;99956;-78
2024/02/14 06:26:35;;;;;;;46.50;21.80;;;;;;;1.86;78.89;97771.10;104697;1260;98053;-77
2024/02/14 06:29:02;;;;;;;51.00;20.50;;;;;;;1.86;78.81;97770.37;104689;1271;98351;-77
2024/02/14 06:31:34;;;;;;;45.00;21.40;;;;;;;1.88;78.85;97768.89;104633;1257;97938;-77
2024/02/14 06:34:01;;;;;;;41.80;19.70;;;;;;;1.88;78.89;97767.45;104521;1266;101404;-77
2024/02/14 06:36:33;;;;;;;42.60;19.70;;;;;;;1.90;79.01;97766.44;104590;1264;97921;-79
2024/02/14 06:39:00;;;;;;;40.40;18.50;;;;;;;1.91;79.02;97765.82;104555;1269;97964;-77
2024/02/14 06:41:37;;;;;;;40.50;20.30;;;;;;;1.89;78.92;97767.63;104660;1269;97906;-77
2024/02/14 06:44:05;;;;;;;43.10;18.50;;;;;;;1.87;78.94;97772.89;104616;1269;103593;-83
2024/02/14 06:46:47;;;;;;;37.30;18.50;;;;;;;1.87;78.91;97773.95;104616;1262;101415;-78
2024/02/14 06:49:23;;;;;;;36.90;18.10;;;;;;;1.89;78.80;97772.41;104744;1270;100063;-76
2024/02/14 06:51:50;;;;;;;40.80;19.10;;;;;;;1.91;78.93;97768.60;104666;1257;97942;-78
2024/02/14 06:54:19;;;;;;;37.80;17.60;;;;;;;1.93;79.00;97765.05;104718;1261;97951;-77
2024/02/14 06:56:48;;;;;;;38.50;17.50;;;;;;;1.94;78.97;97768.34;104659;1256;102611;-78
2024/02/14 06:59:26;;;;;;;35.20;18.10;;;;;;;1.95;78.90;97769.30;104715;1270;108010;-77
2024/02/14 07:02:12;;;;;;;44.10;20.50;;;;;;;1.96;78.90;97768.83;104616;1257;99021;-78
2024/02/14 07:04:39;;;;;;;68.70;28.70;;;;;;;1.98;78.94;97776.80;104612;1267;97913;-77
2024/02/14 07:07:06;;;;;;;71.30;30.00;;;;;;;2.01;79.01;97774.79;104563;1258;97929;-78
2024/02/14 07:09:35;;;;;;;72.80;31.40;;;;;;;2.04;78.96;97774.13;104652;1270;97887;-77
2024/02/14 07:12:02;;;;;;;73.00;34.20;;;;;;;2.08;78.89;97776.85;104667;1257;98850;-77
2024/02/14 07:14:28;;;;;;;78.90;33.70;;;;;;;2.10;78.83;97771.67;104716;1261;98828;-77
2024/02/14 07:16:55;;;;;;;83.40;37.40;;;;;;;2.14;78.95;97776.64;104681;1261;97930;-77
2024/02/14 07:19:22;;;;;;;87.90;39.20;;;;;;;2.16;78.75;97773.97;104654;1263;98369;-79
2024/02/14 07:21:48;;;;;;;94.50;42.60;;;;;;;2.19;78.64;97775.79;104798;1261;97932;-77
2024/02/14 07:24:15;;;;;;;97.50;43.50;;;;;;;2.21;78.65;97774.54;104602;1271;99649;-77
2024/02/14 07:26:43;;;;;;;90.10;44.20;;;;;;;2.24;78.46;97775.79;104608;1271;98027;-77
2024/02/14 07:29:12;;;;;;;87.00;43.40;;;;;;;2.29;78.42;97775.55;104559;1263;97950;-76
2024/02/14 07:31:42;;;;;;;86.50;41.70;;;;;;;2.33;78.26;97772.44;104618;1260;103511;-75
2024/02/14 07:34:09;;;;;;;100.80;48.20;;;;;;;2.35;78.18;97773.66;104636;1271;101352;-76
2024/02/14 07:36:35;;;;;;;94.50;45.00;;;;;;;2.40;78.26;97769.65;104737;1270;98853;-75
2024/02/14 07:39:04;;;;;;;78.10;36.40;;;;;;;2.46;78.28;97772.17;104696;1262;98006;-84
2024/02/14 07:41:31;;;;;;;66.10;33.20;;;;;;;2.52;78.09;97773.54;104721;1262;97925;-84
2024/02/14 07:43:59;;;;;;;57.30;31.60;;;;;;;2.58;77.99;97775.81;104615;1260;98781;-85
2024/02/14 07:46:29;;;;;;;60.40;30.40;;;;;;;2.64;78.00;97775.48;104693;1261;97931;-78
2024/02/14 07:49:36;;;;;;;57.40;30.20;;;;;;;2.70;77.90;97776.26;104623;1260;99952;-79
2024/02/14 07:52:05;;;;;;;50.40;27.60;;;;;;;2.78;77.70;97776.52;104524;1273;97996;-77
2024/02/14 07:54:32;;;;;;;49.00;26.20;;;;;;;2.84;77.52;97774.81;104605;1264;98351;-78
2024/02/14 07:57:01;;;;;;;38.80;22.00;;;;;;;2.92;77.36;97774.71;104685;1260;98311;-76
2024/02/14 07:59:41;;;;;;;41.10;22.00;;;;;;;3.02;77.15;97773.29;104654;1268;101798;-84
2024/02/14 08:02:11;;;;;;;35.10;21.40;;;;;;;3.19;77.09;97774.41;104645;1263;100135;-77
2024/02/14 08:04:49;;;;;;;35.00;20.30;;;;;;;3.37;76.90;97773.96;104643;1261;97918;-77
2024/02/14 08:07:31;;;;;;;38.10;20.70;;;;;;;3.52;76.35;97772.05;104547;1259;99792;-77
2024/02/14 08:10:39;;;;;;;34.10;19.80;;;;;;;3.68;76.06;97771.27;104662;1261;103771;-77
2024/02/14 08:13:28;;;;;;;33.00;18.40;;;;;;;3.84;75.63;97767.65;104649;1260;101317;-79
2024/02/14 08:16:35;;;;;;;30.60;18.00;;;;;;;3.97;75.37;97768.99;104631;1271;100014;-77
2024/02/14 08:19:10;;;;;;;30.20;16.70;;;;;;;4.14;75.15;97765.19;104623;1263;97964;-78
2024/02/14 08:22:07;;;;;;;28.00;16.90;;;;;;;4.32;74.93;97760.79;104628;1270;98585;-77
2024/02/14 08:25:14;;;;;;;31.50;16.50;;;;;;;4.50;74.48;97757.95;104668;1267;103781;-77
2024/02/14 08:27:49;;;;;;;28.90;16.20;;;;;;;4.72;74.12;97760.42;104598;1256;100354;-77
2024/02/14 08:30:19;;;;;;;27.50;15.60;;;;;;;4.90;73.77;97760.93;104710;1270;99911;-77
2024/02/14 08:33:19;;;;;;;30.50;16.30;;;;;;;5.04;73.64;97757.59;104653;1274;97922;-78
2024/02/14 08:36:11;;;;;;;29.10;14.90;;;;;;;5.16;72.93;97754.47;104639;1264;98036;-76
2024/02/14 08:38:41;;;;;;;19.70;8.80;;;;;;;5.24;71.98;97754.46;104584;1263;102746;-85
2024/02/14 08:41:46;;;;;;;17.40;10.40;;;;;;;5.33;71.28;97750.21;104758;1271;101071;-85
2024/02/14 08:44:39;;;;;;;19.90;10.20;;;;;;;5.50;70.61;97749.45;104614;1261;100037;-83
2024/02/14 08:47:29;;;;;;;8.30;5.40;;;;;;;5.68;70.38;97753.41;104750;1258;98022;-86
2024/02/14 08:50:36;;;;;;;7.60;3.20;;;;;;;5.89;69.01;97751.10;104679;1261;99573;-87
2024/02/14 08:53:34;;;;;;;8.00;3.00;;;;;;;6.05;67.54;97745.01;104665;1261;103689;-84
2024/02/14 08:56:41;;;;;;;7.80;3.20;;;;;;;6.25;67.36;97742.20;104666;1256;101670;-86
2024/02/14 08:59:38;;;;;;;5.70;3.20;;;;;;;6.46;66.41;97743.47;104708;1260;99968;-75
2024/02/14 09:02:28;;;;;;;5.60;2.60;;;;;;;6.68;65.49;97743.85;104584;1271;98003;-84
2024/02/14 09:05:34;;;;;;;6.00;2.20;;;;;;;6.93;64.41;97744.00;104673;1256;98429;-85
2024/02/14 09:08:26;;;;;;;3.70;2.20;;;;;;;7.18;64.03;97743.89;104612;1272;103647;-85
2024/02/14 09:11:33;;;;;;;6.50;3.00;;;;;;;7.41;63.06;97744.90;104624;1256;101478;-83
2024/02/14 09:14:33;;;;;;;5.80;2.70;;;;;;;7.66;63.26;97748.38;104619;1261;99988;-87
2024/02/14 09:17:40;;;;;;;7.00;3.20;;;;;;;7.93;62.90;97742.89;104628;1274;98466;-88
2024/02/14 09:20:37;;;;;;;6.30;3.40;;;;;;;8.16;61.08;97745.84;104606;1272;98474;-85
2024/02/14 09:23:33;;;;;;;8.20;4.40;;;;;;;8.26;60.63;97748.29;104722;1261;103799;-85
2024/02/14 09:26:29;;;;;;;12.70;4.20;;;;;;;8.47;60.45;97743.51;104735;1257;101564;-87
2024/02/14 09:29:38;;;;;;;6.50;4.00;;;;;;;8.68;59.93;97742.75;104580;1264;99993;-84
2024/02/14 09:32:44;;;;;;;9.30;4.30;;;;;;;8.81;59.81;97744.00;104630;1263;98269;-77
2024/02/14 09:35:52;;;;;;;9.90;3.90;;;;;;;9.00;58.20;97742.90;104681;1270;98428;-77
2024/02/14 09:38:54;;;;;;;4.30;2.80;;;;;;;9.10;57.39;97741.74;104648;1261;103644;-78
2024/02/14 09:42:13;;;;;;;4.50;2.40;;;;;;;9.25;57.81;97740.80;104421;1267;101591;-79
2024/02/14 09:45:20;;;;;;;5.10;2.10;;;;;;;9.43;57.21;97741.88;104165;1270;99982;-80
2024/02/14 09:48:10;;;;;;;3.80;2.30;;;;;;;9.59;56.55;97735.53;104137;1266;98123;-78
2024/02/14 09:51:17;;;;;;;5.90;2.00;;;;;;;9.56;56.27;97736.70;104214;1270;98482;-80
2024/02/14 09:54:24;;;;;;;6.30;2.20;;;;;;;9.66;55.69;97734.21;104198;1265;103568;-76
2024/02/14 09:57:31;;;;;;;4.30;2.30;;;;;;;9.88;55.73;97734.35;104103;1267;101323;-86
2024/02/14 10:00:31;;;;;;;2.70;2.10;;;;;;;10.16;55.83;97734.63;104104;1270;107929;-85
2024/02/14 10:03:38;;;;;;;6.80;2.70;;;;;;;10.34;54.25;97731.61;104050;1270;97942;-79
2024/02/14 10:06:45;;;;;;;3.60;2.20;;;;;;;10.36;53.90;97727.89;104163;1267;98547;-78
2024/02/14 10:09:52;;;;;;;5.90;2.60;;;;;;;10.48;53.53;97723.31;104173;1265;103250;-78
2024/02/14 10:12:52;;;;;;;4.80;2.10;;;;;;;10.59;52.64;97720.57;104212;1278;101931;-85
2024/02/14 10:15:59;;;;;;;8.40;3.60;;;;;;;10.62;52.75;97722.31;104156;1268;100019;-77
2024/02/14 10:19:07;;;;;;;5.40;3.10;;;;;;;10.71;52.09;97719.68;104228;1267;98118;-83
2024/02/14 10:22:15;;;;;;;6.00;2.80;;;;;;;10.78;52.17;97716.00;104573;1264;98427;-83
2024/02/14 10:25:21;;;;;;;9.10;3.90;;;;;;;10.98;51.70;97710.45;104682;1261;103719;-87
2024/02/14 10:28:21;;;;;;;5.30;3.00;;;;;;;11.05;50.56;97706.73;104689;1261;101441;-85
2024/02/14 10:31:28;;;;;;;7.00;3.10;;;;;;;11.13;50.54;97704.23;104689;1256;100046;-79
2024/02/14 10:34:35;;;;;;;6.70;3.20;;;;;;;11.23;50.47;97701.31;106044;1257;98767;-76
2024/02/14 10:37:42;;;;;;;6.70;3.10;;;;;;;11.39;50.41;97696.07;104655;1262;98562;-76
2024/02/14 10:40:49;;;;;;;6.90;3.30;;;;;;;11.58;50.54;97691.23;104704;1260;102372;-78
2024/02/14 10:43:56;;;;;;;7.30;3.10;;;;;;;11.79;49.55;97687.79;104694;1257;100599;-78
2024/02/14 10:47:03;;;;;;;7.40;3.30;;;;;;;11.85;48.85;97691.61;104690;1256;99966;-86
2024/02/14 10:50:05;;;;;;;4.50;3.10;;;;;;;11.98;48.59;97687.58;104654;1257;97985;-86
2024/02/14 10:53:11;;;;;;;6.50;3.60;;;;;;;12.19;49.03;97688.98;104722;1261;98333;-78
2024/02/14 10:56:18;;;;;;;6.20;3.30;;;;;;;12.45;48.29;97685.15;104734;1270;103616;-82
2024/02/14 10:59:17;;;;;;;8.70;3.20;;;;;;;12.76;48.31;97681.95;104684;1258;101391;-81
2024/02/14 11:02:24;;;;;;;9.50;3.20;;;;;;;13.11;47.63;97680.58;104707;1257;100080;-77
2024/02/14 11:05:35;;;;;;;4.50;2.30;;;;;;;13.33;47.25;97678.29;104646;1260;98026;-78
2024/02/14 11:08:48;;;;;;;2.90;2.20;;;;;;;13.57;45.15;97679.48;104675;1256;98435;-78
2024/02/14 11:11:55;;;;;;;5.50;2.00;;;;;;;13.73;44.92;97674.30;104588;1256;102419;-79
2024/02/14 11:14:55;;;;;;;4.90;2.50;;;;;;;13.89;44.12;97670.15;104638;1261;100495;-79
2024/02/14 11:18:02;;;;;;;4.20;2.10;;;;;;;14.12;45.44;97667.98;104610;1256;99939;-88
2024/02/14 11:21:03;;;;;;;2.50;1.60;;;;;;;14.36;43.87;97660.73;104609;1257;97974;-86
2024/02/14 11:24:09;;;;;;;5.50;2.00;;;;;;;14.51;42.76;97659.02;104589;1257;98374;-86
2024/02/14 11:27:21;;;;;;;4.80;2.30;;;;;;;14.44;41.58;97656.39;104670;1270;103589;-86
2024/02/14 11:30:36;;;;;;;4.90;1.90;;;;;;;14.47;42.19;97652.63;104351;1262;101340;-86
2024/02/14 11:33:51;;;;;;;2.20;1.30;;;;;;;14.74;43.28;97649.58;104279;1267;99859;-78
2024/02/14 11:36:55;;;;;;;4.90;2.20;;;;;;;14.97;42.57;97646.16;103826;1270;98122;-80
2024/02/14 11:39:57;;;;;;;3.70;1.60;;;;;;;15.11;41.81;97643.46;103835;1270;100476;-80
2024/02/14 11:42:32;;;;;;;5.70;2.50;;;;;;;15.04;40.24;97638.39;103975;1273;103192;-80
2024/02/14 11:45:31;;;;;;;3.60;1.90;;;;;;;14.95;40.39;97635.29;103816;1273;101380;-78
2024/02/14 11:48:38;;;;;;;6.00;1.80;;;;;;;14.89;40.02;97631.66;103906;1286;100087;-86
2024/02/14 11:51:45;;;;;;;5.80;2.10;;;;;;;14.86;40.79;97633.59;103883;1270;99202;-80
2024/02/14 11:54:52;;;;;;;6.70;3.50;;;;;;;14.91;40.47;97629.25;103778;1276;98723;-78
2024/02/14 11:57:59;;;;;;;6.40;2.40;;;;;;;14.94;40.46;97623.97;103842;1270;103480;-77
2024/02/14 12:01:05;;;;;;;3.90;2.10;;;;;;;14.98;40.29;97620.34;103947;1286;101508;-86
2024/02/14 12:04:11;;;;;;;4.00;1.90;;;;;;;15.02;40.40;97615.52;103854;1277;100215;-87
2024/02/14 12:07:19;;;;;;;4.60;2.00;;;;;;;15.10;40.22;97614.16;104100;1275;98107;-86
2024/02/14 12:10:26;;;;;;;6.40;2.00;;;;;;;15.02;39.82;97612.45;104636;1264;98459;-77
2024/02/14 12:13:20;;;;;;;7.60;2.10;;;;;;;15.01;39.59;97609.94;104524;1264;102306;-75
2024/02/14 12:16:25;;;;;;;3.10;2.10;;;;;;;14.98;39.97;97607.80;104798;1260;101498;-76
2024/02/14 12:19:37;;;;;;;4.20;2.10;;;;;;;14.99;40.19;97609.16;106492;1257;99139;-82
2024/02/14 12:22:44;;;;;;;3.00;1.90;;;;;;;15.29;39.98;97612.79;104583;1261;99437;-79
2024/02/14 12:25:51;;;;;;;2.50;1.90;;;;;;;15.53;40.21;97609.98;105833;1256;97854;-79